»·PEaware :: N6507W KPVF-KRDD

N6507W :: KPVF-KRDD

FLIGHT INFORMATION

Flight Status: Arrived
Operator: Privately registered:
United States
More flights under this callsign
Pilot: Jukka N. (18040)
Aircraft: Unknown
(KODI)
More flights by this aircraft type
Origin: KPVF Placerville
United States
Destination: KRDD Redding Mun
United States
More flights between these airports :: More routes between these airports
Route:
File this flight plan on PilotEdge
Remarks:
Altitude:
(Current/Filed)
4,500ft
Speed:
(Current/Filed)
170kts
Departed: 18-Mar-19 11:00 AM
Arrived: 18-Mar-19 12:04 PM
Distance/Time
Traveled:
129nm/1:03
Distance/Time
To Go:
Arrived

Flight Plot

Page will automatically refresh every two minutes.

Flight plan parsing failed; only flown route is shown


Map Options




Map Legend


Flown Route
Filed Route
Departure Airport
Arrival Airport
Navaid (VOR, NDB)
Fix

Horizontal Profiles

Position Reports

Time Latitude Longitude Heading Altitude Ground
Speed
18-Mar-19 10:42 38.722727 -120.762070 177 2589ft 0kts
18-Mar-19 10:43 38.722727 -120.762070 177 2588ft 0kts
18-Mar-19 10:44 38.722727 -120.762070 177 2588ft 0kts
18-Mar-19 10:45 38.722727 -120.762070 177 2588ft 0kts
18-Mar-19 10:46 38.722727 -120.762070 177 2588ft 0kts
18-Mar-19 10:47 38.722727 -120.762070 177 2588ft 0kts
18-Mar-19 10:48 38.722727 -120.762070 177 2588ft 0kts
18-Mar-19 10:49 38.722727 -120.762070 177 2588ft 0kts
18-Mar-19 10:50 38.722727 -120.762070 177 2588ft 0kts
18-Mar-19 10:51 38.722727 -120.762070 178 2588ft 0kts
18-Mar-19 10:52 38.722727 -120.762070 178 2588ft 0kts
18-Mar-19 10:53 38.722727 -120.762070 178 2588ft 0kts
18-Mar-19 10:54 38.722727 -120.762070 178 2588ft 0kts
18-Mar-19 10:55 38.722727 -120.762070 178 2588ft 0kts
18-Mar-19 10:56 38.722588 -120.762023 94 2588ft 2kts
18-Mar-19 10:57 38.722671 -120.759486 90 2588ft 11kts
18-Mar-19 10:58 38.721995 -120.759953 207 2588ft 0kts
18-Mar-19 10:59 38.724321 -120.753063 62 2589ft 98kts
18-Mar-19 11:00 38.740082 -120.721604 7 3867ft 117kts
18-Mar-19 11:02 38.767838 -120.747198 309 4687ft 148kts
18-Mar-19 11:03 38.798925 -120.790359 309 4654ft 173kts
18-Mar-19 11:04 38.830795 -120.838047 311 4649ft 178kts
18-Mar-19 11:05 38.870828 -120.876125 324 4615ft 181kts
18-Mar-19 11:06 38.913222 -120.911816 324 4615ft 181kts
18-Mar-19 11:07 38.955378 -120.947326 324 4615ft 181kts
18-Mar-19 11:08 38.997601 -120.982944 324 4615ft 181kts
18-Mar-19 11:09 39.039875 -121.018657 324 4616ft 181kts
18-Mar-19 11:10 39.082032 -121.054343 324 4652ft 181kts
18-Mar-19 11:11 39.123851 -121.089769 325 4650ft 182kts
18-Mar-19 11:12 39.166229 -121.125618 325 4650ft 182kts
18-Mar-19 11:13 39.208699 -121.161689 325 4650ft 182kts
18-Mar-19 11:14 39.251144 -121.197806 325 4650ft 182kts
18-Mar-19 11:15 39.293293 -121.233726 325 4650ft 181kts
18-Mar-19 11:16 39.335520 -121.269751 325 4586ft 182kts
18-Mar-19 11:17 39.377431 -121.305555 324 4614ft 179kts
18-Mar-19 11:18 39.418782 -121.340954 324 4614ft 178kts
18-Mar-19 11:19 39.459872 -121.376182 323 4614ft 176kts
18-Mar-19 11:20 39.500490 -121.411057 323 4614ft 174kts
18-Mar-19 11:20 39.534340 -121.440156 323 4614ft 174kts
18-Mar-19 11:22 39.581466 -121.480722 323 4614ft 174kts
18-Mar-19 11:23 39.621729 -121.515434 323 4614ft 173kts
18-Mar-19 11:23 39.655349 -121.544457 323 4614ft 173kts
18-Mar-19 11:24 39.695125 -121.578833 323 4669ft 172kts
18-Mar-19 11:26 39.741692 -121.619148 323 4668ft 172kts
18-Mar-19 11:26 39.775018 -121.648036 323 4668ft 172kts
18-Mar-19 11:27 39.814948 -121.682696 322 4670ft 172kts
18-Mar-19 11:28 39.854877 -121.717404 322 4670ft 172kts
18-Mar-19 11:29 39.894803 -121.752158 322 4670ft 172kts
18-Mar-19 11:30 39.934704 -121.786939 322 4661ft 173kts
18-Mar-19 11:31 39.975199 -121.822302 322 4473ft 176kts
18-Mar-19 11:32 40.019615 -121.849984 344 4317ft 177kts
18-Mar-19 11:33 40.067444 -121.863648 344 4319ft 176kts
18-Mar-19 11:34 40.114698 -121.877114 344 4318ft 174kts
18-Mar-19 11:35 40.161770 -121.893335 344 4318ft 175kts
18-Mar-19 11:36 40.208450 -121.912620 344 4318ft 176kts
18-Mar-19 11:37 40.255230 -121.931951 344 4318ft 176kts
18-Mar-19 11:38 40.302335 -121.951243 346 4317ft 176kts
18-Mar-19 11:39 40.349870 -121.966315 348 4318ft 176kts
18-Mar-19 11:40 40.397702 -121.981609 348 4299ft 176kts
18-Mar-19 11:41 40.441483 -121.995633 348 4285ft 133kts
18-Mar-19 11:42 40.473043 -122.006107 348 4292ft 106kts
18-Mar-19 11:43 40.501130 -122.014988 348 4299ft 102kts
18-Mar-19 11:44 40.529033 -122.023043 348 4300ft 102kts
18-Mar-19 11:45 40.557692 -122.031055 348 4302ft 108kts
18-Mar-19 11:46 40.587684 -122.039393 348 4300ft 111kts
18-Mar-19 11:47 40.618007 -122.047805 348 4300ft 112kts
18-Mar-19 11:48 40.648567 -122.056271 348 4300ft 112kts
18-Mar-19 11:49 40.679138 -122.064730 348 4300ft 112kts
18-Mar-19 11:50 40.709681 -122.073513 332 4299ft 112kts
18-Mar-19 11:51 40.710079 -122.107753 251 4301ft 103kts
18-Mar-19 11:52 40.706871 -122.145813 260 4300ft 105kts
18-Mar-19 11:53 40.705376 -122.184438 261 4300ft 105kts
18-Mar-19 11:54 40.704026 -122.223097 261 4300ft 105kts
18-Mar-19 11:55 40.702699 -122.261752 260 4300ft 105kts
18-Mar-19 11:56 40.692166 -122.292037 199 4303ft 93kts
18-Mar-19 11:57 40.665990 -122.296858 177 4027ft 108kts
18-Mar-19 11:58 40.633001 -122.294878 179 3064ft 125kts
18-Mar-19 11:59 40.600448 -122.294210 176 2067ft 107kts
18-Mar-19 12:00 40.573940 -122.294158 175 1379ft 82kts
18-Mar-19 12:01 40.552158 -122.294785 176 967ft 84kts
18-Mar-19 12:02 40.526904 -122.294777 176 666ft 93kts
18-Mar-19 12:03 40.508217 -122.295052 227 507ft 24kts
18-Mar-19 12:04 40.508385 -122.297169 224 507ft 15kts
18-Mar-19 12:05 40.508703 -122.298274 0 507ft 0kts
18-Mar-19 12:06 40.508760 -122.298236 41 507ft 3kts
18-Mar-19 12:07 40.509022 -122.297913 0 507ft 0kts
18-Mar-19 12:08 40.509022 -122.297913 0 507ft 0kts
18-Mar-19 12:09 40.509022 -122.297913 0 507ft 0kts
18-Mar-19 12:10 40.509022 -122.297913 0 507ft 0kts
18-Mar-19 12:11 40.509022 -122.297913 0 507ft 0kts
18-Mar-19 12:12 40.509022 -122.297913 0 507ft 0kts
18-Mar-19 12:13 40.509022 -122.297913 0 507ft 0kts
18-Mar-19 12:14 40.509022 -122.297913 0 507ft 0kts
18-Mar-19 12:15 40.509022 -122.297913 0 507ft 0kts
18-Mar-19 12:16 40.509022 -122.297913 0 507ft 0kts
18-Mar-19 12:17 40.509022 -122.297913 0 507ft 0kts

Navigation Log

Ident Type
Flight plan parsing failed, navigation log unavailable